Time;durP1;ratioP1;P1;durP2;ratioP2;P2;SDS_P1;SDS_P2;PMS_P1;PMS_P2;Temp;Humidity;BMP_temperature;BMP_pressure;BME280_temperature;BME280_humidity;BME280_pressure;Samples;Min_cycle;Max_cycle;Signal;HPM_P1;HPM_P2
2023/01/03 00:00:41;;;;;;;725.65;354.95;;;3.30;99.90;;;;;;5055619;28;20148;-78
2023/01/03 00:03:16;;;;;;;674.83;327.85;;;3.30;99.90;;;;;;5054419;28;20047;-78
2023/01/03 00:05:48;;;;;;;711.15;336.08;;;3.30;99.90;;;;;;5055429;28;20485;-78
2023/01/03 00:08:17;;;;;;;696.20;340.67;;;3.30;99.90;;;;;;5055199;28;20036;-78
2023/01/03 00:10:45;;;;;;;634.58;307.10;;;3.30;99.90;;;;;;5055306;28;20113;-78
2023/01/03 00:17:30;;;;;;;567.10;274.52;;;3.40;99.90;;;;;;5055252;28;20031;-78
2023/01/03 00:19:59;;;;;;;542.83;257.45;;;3.20;99.90;;;;;;5050193;28;20041;-77
2023/01/03 00:22:33;;;;;;;545.28;265.95;;;3.20;99.90;;;;;;5054862;28;20403;-77
2023/01/03 00:25:10;;;;;;;558.25;271.55;;;3.10;99.90;;;;;;5054043;28;20029;-78
2023/01/03 00:27:53;;;;;;;541.08;261.05;;;3.10;99.90;;;;;;5054818;28;20060;-77
2023/01/03 00:34:18;;;;;;;676.10;329.70;;;3.20;99.90;;;;;;5034894;28;20104;-77
2023/01/03 00:37:01;;;;;;;747.50;346.67;;;3.30;99.90;;;;;;5034862;28;20037;-77
2023/01/03 00:39:32;;;;;;;531.63;248.57;;;3.40;99.90;;;;;;5032372;28;20042;-78
2023/01/03 00:46:41;;;;;;;541.00;246.82;;;3.10;99.90;;;;;;5034956;28;20100;-77
2023/01/03 00:49:12;;;;;;;500.83;221.30;;;3.10;99.90;;;;;;5034588;28;20038;-77
2023/01/03 00:51:40;;;;;;;497.88;227.00;;;3.10;99.90;;;;;;5063173;28;20045;-77
2023/01/03 00:54:18;;;;;;;531.25;247.13;;;3.10;99.90;;;;;;5074165;28;20066;-77
2023/01/03 00:56:48;;;;;;;441.55;210.88;;;3.00;99.90;;;;;;5073643;28;20110;-77
2023/01/03 00:59:17;;;;;;;453.58;219.27;;;2.90;99.90;;;;;;5074484;28;20419;-78
2023/01/03 01:01:53;;;;;;;477.52;223.25;;;2.70;99.90;;;;;;5057694;28;20045;-77
2023/01/03 01:04:30;;;;;;;443.60;209.75;;;2.80;99.90;;;;;;5098633;28;20040;-77
2023/01/03 01:07:01;;;;;;;451.80;216.45;;;2.90;99.90;;;;;;5117155;28;20038;-78
2023/01/03 01:13:13;;;;;;;476.63;225.82;;;2.90;99.90;;;;;;5117124;28;20035;-77
2023/01/03 01:16:21;;;;;;;453.00;215.57;;;3.00;99.90;;;;;;5117293;28;20065;-77
2023/01/03 01:18:52;;;;;;;464.45;216.05;;;3.20;99.90;;;;;;5099154;28;20190;-77
2023/01/03 01:21:33;;;;;;;586.88;272.63;;;3.30;99.90;;;;;;5114889;28;20062;-78
2023/01/03 01:27:37;;;;;;;369.45;172.68;;;3.20;99.90;;;;;;5073736;28;20051;-77
2023/01/03 01:31:00;;;;;;;328.73;158.80;;;3.00;99.90;;;;;;5070334;28;20127;-77
2023/01/03 01:33:28;;;;;;;371.45;169.38;;;2.90;99.90;;;;;;5053734;28;20052;-77
2023/01/03 01:36:14;;;;;;;383.30;181.48;;;2.80;99.90;;;;;;5053711;28;20191;-77
2023/01/03 01:38:44;;;;;;;422.50;201.50;;;2.90;99.90;;;;;;5037258;28;20332;-77
2023/01/03 01:44:36;;;;;;;457.88;228.23;;;2.90;99.90;;;;;;5053447;28;20497;-78
2023/01/03 01:48:07;;;;;;;460.30;222.27;;;2.80;99.90;;;;;;5053516;28;20116;-77
2023/01/03 01:50:53;;;;;;;427.90;199.60;;;2.80;99.90;;;;;;5053354;28;20478;-77
2023/01/03 01:57:03;;;;;;;376.92;186.00;;;2.90;99.90;;;;;;4954758;29;20057;-77
2023/01/03 01:59:51;;;;;;;394.27;194.25;;;2.70;99.90;;;;;;4955327;29;20106;-77
2023/01/03 02:02:24;;;;;;;369.20;177.15;;;2.60;99.90;;;;;;4954923;29;20059;-77
2023/01/03 02:24:25;;;;;;;366.75;174.68;;;2.30;99.90;;;;;;5013086;28;20045;-77
2023/01/03 02:27:00;;;;;;;376.35;179.73;;;2.10;99.90;;;;;;5013157;28;20472;-77
2023/01/03 02:30:14;;;;;;;391.48;193.07;;;2.10;99.90;;;;;;5012926;28;20034;-78
2023/01/03 02:37:06;;;;;;;455.50;211.25;;;2.30;99.90;;;;;;5075279;28;20035;-77
2023/01/03 02:40:26;;;;;;;503.65;246.75;;;2.50;99.90;;;;;;5073666;28;20098;-77
2023/01/03 02:43:54;;;;;;;469.70;226.82;;;2.50;99.90;;;;;;5012792;28;20061;-77
2023/01/03 02:46:48;;;;;;;478.15;235.40;;;2.60;99.90;;;;;;5009997;28;20045;-77
2023/01/03 02:49:46;;;;;;;454.83;218.02;;;2.50;99.90;;;;;;5012641;28;20034;-76
2023/01/03 02:56:27;;;;;;;431.08;204.40;;;2.30;99.90;;;;;;5022807;28;20044;-77
2023/01/03 02:59:16;;;;;;;414.45;208.15;;;2.30;99.90;;;;;;5032175;28;20499;-77
2023/01/03 03:06:05;;;;;;;482.88;231.57;;;2.30;99.90;;;;;;5032497;28;20048;-77
2023/01/03 03:08:37;;;;;;;520.53;237.98;;;2.10;99.90;;;;;;5032392;28;20029;-77
2023/01/03 03:14:58;;;;;;;474.60;219.98;;;2.10;99.90;;;;;;5101399;28;20124;-77
2023/01/03 03:25:40;;;;;;;448.30;213.25;;;2.20;99.90;;;;;;5094312;28;20599;-77
2023/01/03 03:38:58;;;;;;;413.52;203.23;;;2.00;99.90;;;;;;5114978;28;20400;-77
2023/01/03 03:45:11;;;;;;;409.88;196.80;;;2.00;99.90;;;;;;5114686;28;20449;-77
2023/01/03 03:48:13;;;;;;;425.70;201.27;;;1.90;99.90;;;;;;5114806;28;20031;-77
2023/01/03 03:54:55;;;;;;;398.55;186.70;;;2.00;99.90;;;;;;5115005;28;20043;-77
2023/01/03 03:57:48;;;;;;;336.00;162.70;;;2.20;99.90;;;;;;5114110;28;20172;-77
2023/01/03 04:04:27;;;;;;;259.10;127.32;;;2.30;99.90;;;;;;5114536;28;20042;-77
2023/01/03 04:07:26;;;;;;;275.13;129.65;;;2.00;99.90;;;;;;5114549;28;20027;-77
2023/01/03 04:13:54;;;;;;;242.13;119.10;;;1.80;99.90;;;;;;5114674;28;20070;-77
2023/01/03 04:16:25;;;;;;;261.40;129.98;;;1.70;99.90;;;;;;5094105;28;20039;-77
2023/01/03 04:18:54;;;;;;;275.90;132.32;;;1.60;99.90;;;;;;5093785;28;20051;-77
2023/01/03 04:21:21;;;;;;;286.50;131.63;;;1.60;99.90;;;;;;5112960;28;20031;-77
2023/01/03 04:24:13;;;;;;;268.10;130.07;;;1.50;99.90;;;;;;5114262;28;20028;-77
2023/01/03 04:27:21;;;;;;;272.17;130.45;;;1.50;99.90;;;;;;5114047;28;20035;-77
2023/01/03 04:33:49;;;;;;;265.95;128.25;;;1.70;99.90;;;;;;5135041;27;20534;-76
2023/01/03 04:36:39;;;;;;;279.83;132.15;;;1.90;99.90;;;;;;5120777;27;20110;-77
2023/01/03 04:39:05;;;;;;;263.65;120.57;;;1.90;99.90;;;;;;5138574;27;20023;-77
2023/01/03 04:41:36;;;;;;;243.25;117.20;;;1.80;99.90;;;;;;5120268;27;20434;-77
2023/01/03 04:48:45;;;;;;;267.75;124.28;;;1.70;99.90;;;;;;5138619;27;20454;-77
2023/01/03 04:51:18;;;;;;;248.88;120.57;;;1.60;99.90;;;;;;5138126;27;20031;-77
2023/01/03 04:53:48;;;;;;;243.38;121.53;;;1.60;99.90;;;;;;5120090;27;20039;-77
2023/01/03 05:01:06;;;;;;;260.55;126.00;;;1.50;99.90;;;;;;5130485;27;20496;-77
2023/01/03 05:07:28;;;;;;;305.42;148.73;;;1.40;99.90;;;;;;5117754;28;20388;-77
2023/01/03 05:10:41;;;;;;;333.13;161.02;;;1.50;99.90;;;;;;5117105;28;20028;-77
2023/01/03 05:13:10;;;;;;;302.10;140.48;;;1.50;99.90;;;;;;5117061;28;20104;-77
2023/01/03 05:15:46;;;;;;;298.40;146.95;;;1.60;99.90;;;;;;5116427;28;20040;-77
2023/01/03 05:36:57;;;;;;;283.08;135.38;;;1.60;99.90;;;;;;5076304;28;20024;-77
2023/01/03 05:39:31;;;;;;;296.80;142.18;;;1.60;99.90;;;;;;5076005;28;20025;-77
2023/01/03 05:42:01;;;;;;;307.88;145.05;;;1.70;99.90;;;;;;5076054;28;20333;-77
2023/01/03 05:44:33;;;;;;;305.33;143.40;;;1.60;99.90;;;;;;5058249;28;20564;-77
2023/01/03 05:47:10;;;;;;;293.35;143.18;;;1.60;99.90;;;;;;5074687;28;20088;-77
2023/01/03 05:49:42;;;;;;;310.02;152.02;;;1.50;99.90;;;;;;5057907;28;20570;-77
2023/01/03 05:52:27;;;;;;;302.08;148.48;;;1.40;99.90;;;;;;5058509;28;20025;-77
2023/01/03 05:55:02;;;;;;;314.25;142.80;;;1.50;99.90;;;;;;5059673;28;20395;-77
2023/01/03 06:01:21;;;;;;;302.42;139.65;;;1.60;99.90;;;;;;5075653;28;20528;-77
2023/01/03 06:04:34;;;;;;;276.27;129.20;;;1.60;99.90;;;;;;5075377;28;20047;-77
2023/01/03 06:07:03;;;;;;;307.02;142.43;;;1.60;99.90;;;;;;5074855;28;20045;-77
2023/01/03 06:09:35;;;;;;;290.23;139.00;;;1.50;99.90;;;;;;5057795;28;20037;-77
2023/01/03 06:12:05;;;;;;;285.88;137.13;;;1.40;99.90;;;;;;5057479;28;20041;-77
2023/01/03 06:18:52;;;;;;;308.08;140.73;;;1.30;99.90;;;;;;5075339;28;19966;-77
2023/01/03 06:21:29;;;;;;;274.13;126.15;;;1.40;99.90;;;;;;5074846;28;20052;-77
2023/01/03 06:23:57;;;;;;;249.98;116.80;;;1.40;99.90;;;;;;5075023;28;20027;-76
2023/01/03 06:26:26;;;;;;;245.55;115.68;;;1.40;99.90;;;;;;5057666;28;20031;-77
2023/01/03 06:29:12;;;;;;;256.98;121.90;;;1.50;99.90;;;;;;5074444;28;20159;-77
2023/01/03 06:31:39;;;;;;;270.00;127.32;;;1.40;99.90;;;;;;5105840;28;20044;-77
2023/01/03 06:34:06;;;;;;;296.95;135.38;;;1.30;99.90;;;;;;5097774;28;20024;-77
2023/01/03 06:36:39;;;;;;;269.50;130.43;;;1.40;99.90;;;;;;5115702;28;20045;-77
2023/01/03 06:39:11;;;;;;;254.05;123.47;;;1.50;99.90;;;;;;5081320;28;20535;-77
2023/01/03 07:00:11;;;;;;;306.30;130.75;;;1.70;99.90;;;;;;5032086;28;20037;-77
2023/01/03 07:10:08;;;;;;;342.13;148.95;;;1.80;99.90;;;;;;5051947;28;20445;-77
2023/01/03 07:24:22;;;;;;;324.05;145.50;;;1.80;99.90;;;;;;5031678;28;20089;-77
2023/01/03 07:26:51;;;;;;;342.45;150.20;;;2.00;99.90;;;;;;5031876;28;20560;-77
2023/01/03 07:29:18;;;;;;;306.40;142.90;;;2.20;99.90;;;;;;5031876;28;20068;-77
2023/01/03 07:39:36;;;;;;;271.83;130.48;;;4.50;99.90;;;;;;5012378;28;20040;-76
2023/01/03 07:53:54;;;;;;;335.73;165.95;;;8.00;99.90;;;;;;5017590;28;20037;-75
2023/01/03 08:03:35;;;;;;;349.38;181.70;;;10.30;96.80;;;;;;5031355;28;20618;-75
2023/01/03 08:13:54;;;;;;;290.83;156.32;;;12.20;90.30;;;;;;5035483;28;20049;-75
2023/01/03 08:16:22;;;;;;;294.08;154.98;;;13.20;83.50;;;;;;5034914;28;20548;-75
2023/01/03 08:22:32;;;;;;;298.07;157.50;;;13.10;78.00;;;;;;5015189;28;20045;-75
2023/01/03 08:26:16;;;;;;;311.60;161.32;;;14.20;76.30;;;;;;5015307;28;20366;-75
2023/01/03 08:28:46;;;;;;;285.67;154.60;;;14.00;71.40;;;;;;5015148;28;20045;-75
2023/01/03 08:35:39;;;;;;;284.80;154.55;;;15.50;68.70;;;;;;5015388;28;20063;-75
2023/01/03 08:38:17;;;;;;;281.63;150.13;;;15.40;66.40;;;;;;5018676;28;20136;-76
2023/01/03 08:40:47;;;;;;;275.13;145.82;;;15.50;66.90;;;;;;5034638;28;20069;-75
2023/01/03 08:43:17;;;;;;;263.67;148.13;;;15.90;63.50;;;;;;5034528;28;20041;-76
2023/01/03 08:45:57;;;;;;;275.45;152.77;;;14.60;69.90;;;;;;5073494;28;20040;-74
2023/01/03 08:52:20;;;;;;;246.55;137.98;;;15.30;66.30;;;;;;5088898;28;20031;-72
2023/01/03 08:54:50;;;;;;;236.30;137.18;;;15.80;66.00;;;;;;5117723;28;20019;-74
2023/01/03 08:57:39;;;;;;;236.52;131.75;;;15.90;66.10;;;;;;5117472;28;20036;-74
2023/01/03 09:00:09;;;;;;;241.80;130.80;;;16.10;65.70;;;;;;5117384;28;20035;-74
2023/01/03 09:02:38;;;;;;;218.23;122.95;;;16.20;66.10;;;;;;5098935;28;20100;-74
2023/01/03 09:17:01;;;;;;;182.70;108.28;;;16.30;63.90;;;;;;5117348;28;20124;-74
2023/01/03 09:19:32;;;;;;;192.32;114.80;;;17.30;61.60;;;;;;5115356;28;20047;-74
2023/01/03 09:22:01;;;;;;;191.65;113.30;;;16.90;62.50;;;;;;5116110;28;20157;-74
2023/01/03 09:24:35;;;;;;;189.57;112.40;;;17.40;60.70;;;;;;5116992;28;20342;-74
2023/01/03 09:30:49;;;;;;;183.95;111.28;;;18.00;58.20;;;;;;5053671;28;20044;-74
2023/01/03 09:33:42;;;;;;;187.32;111.55;;;16.80;61.10;;;;;;5037344;28;20052;-74
2023/01/03 09:36:09;;;;;;;186.15;112.20;;;16.70;62.20;;;;;;5053764;28;20562;-74
2023/01/03 09:38:38;;;;;;;188.55;110.55;;;16.70;61.80;;;;;;5037203;28;20143;-74
2023/01/03 09:41:07;;;;;;;185.20;110.10;;;17.00;63.50;;;;;;5036989;28;20617;-74
2023/01/03 09:43:43;;;;;;;182.18;109.03;;;16.80;63.50;;;;;;5037787;28;20045;-74
2023/01/03 09:46:34;;;;;;;202.27;116.25;;;17.20;62.60;;;;;;5053626;28;20036;-74
2023/01/03 09:49:18;;;;;;;198.45;117.65;;;17.20;62.00;;;;;;5053523;28;20060;-74
2023/01/03 10:11:01;;;;;;;189.32;108.80;;;19.60;57.60;;;;;;4993625;28;20093;-75
2023/01/03 10:13:56;;;;;;;171.68;102.82;;;19.20;57.80;;;;;;4977380;28;20121;-75
2023/01/03 10:20:39;;;;;;;158.43;100.50;;;19.30;58.10;;;;;;4993527;28;20041;-75
2023/01/03 10:27:48;;;;;;;170.82;102.22;;;20.90;54.40;;;;;;4993795;28;20133;-75
2023/01/03 10:30:40;;;;;;;141.82;83.05;;;20.90;53.40;;;;;;4996263;28;20038;-75
2023/01/03 10:33:31;;;;;;;153.15;88.20;;;20.40;55.20;;;;;;5083118;28;20036;-75
2023/01/03 10:36:03;;;;;;;142.18;81.20;;;19.90;55.60;;;;;;5097267;28;20051;-75
2023/01/03 10:39:06;;;;;;;109.63;67.57;;;20.60;55.60;;;;;;5092409;28;20468;-75
2023/01/03 10:45:24;;;;;;;112.40;68.53;;;21.00;55.60;;;;;;5091263;28;20527;-76
2023/01/03 10:48:01;;;;;;;122.18;73.10;;;21.80;53.20;;;;;;5092501;28;20051;-76
2023/01/03 10:50:32;;;;;;;105.43;64.25;;;21.50;53.60;;;;;;5092026;28;20071;-77
2023/01/03 10:57:05;;;;;;;83.13;50.95;;;21.70;52.10;;;;;;5092634;28;20059;-75
2023/01/03 10:59:32;;;;;;;108.05;66.40;;;22.30;50.90;;;;;;5090669;28;20036;-75
2023/01/03 11:03:05;;;;;;;96.20;58.58;;;22.70;50.90;;;;;;5074385;28;20040;-75
2023/01/03 11:06:35;;;;;;;83.00;51.83;;;22.20;50.00;;;;;;5072157;28;20048;-75
2023/01/03 11:09:12;;;;;;;101.97;52.30;;;22.70;49.20;;;;;;5080535;28;20375;-75
2023/01/03 11:11:42;;;;;;;79.28;48.50;;;22.80;49.20;;;;;;5135632;27;20037;-75
2023/01/03 11:14:08;;;;;;;79.18;49.00;;;23.40;47.60;;;;;;5135425;27;20420;-75
2023/01/03 11:16:36;;;;;;;66.32;41.60;;;23.70;46.60;;;;;;5135490;27;20022;-75
2023/01/03 11:19:05;;;;;;;78.35;46.53;;;23.40;45.80;;;;;;5112426;27;20040;-75
2023/01/03 11:21:50;;;;;;;94.57;50.88;;;23.50;46.20;;;;;;5117056;27;20054;-74
2023/01/03 11:24:53;;;;;;;74.93;46.20;;;23.20;45.30;;;;;;5135498;27;20027;-75
2023/01/03 11:27:51;;;;;;;81.88;51.53;;;23.50;45.90;;;;;;5015168;28;20064;-74
2023/01/03 11:34:51;;;;;;;85.22;53.45;;;23.50;45.30;;;;;;5012240;28;20065;-75
2023/01/03 11:37:35;;;;;;;84.57;54.78;;;23.40;45.30;;;;;;5012065;28;20037;-75
2023/01/03 11:44:31;;;;;;;93.25;54.50;;;22.50;46.40;;;;;;5016105;28;20045;-75
2023/01/03 11:47:39;;;;;;;84.60;50.08;;;22.30;47.90;;;;;;5015891;28;20125;-75
2023/01/03 11:50:58;;;;;;;76.07;46.92;;;22.40;47.80;;;;;;5014766;28;20068;-75
2023/01/03 11:54:06;;;;;;;77.15;43.22;;;22.50;47.50;;;;;;5016178;28;20545;-75
2023/01/03 12:08:25;;;;;;;30.63;18.75;;;23.10;45.20;;;;;;5035659;28;20391;-74
2023/01/03 12:11:31;;;;;;;38.63;18.92;;;22.80;46.10;;;;;;5035407;28;20440;-75
2023/01/03 12:17:43;;;;;;;35.33;17.60;;;22.60;46.90;;;;;;5035290;28;20040;-75
2023/01/03 12:20:58;;;;;;;44.45;20.17;;;22.40;47.00;;;;;;5035171;28;20034;-75
2023/01/03 12:23:49;;;;;;;39.30;20.70;;;22.30;46.50;;;;;;5034056;28;20519;-75
2023/01/03 12:26:24;;;;;;;39.22;22.45;;;21.90;46.90;;;;;;5034981;28;20064;-75
2023/01/03 12:32:54;;;;;;;54.00;29.52;;;22.50;47.10;;;;;;5035229;28;20090;-75
2023/01/03 12:36:08;;;;;;;52.58;28.40;;;22.70;46.00;;;;;;5034695;28;20030;-75
2023/01/03 12:42:45;;;;;;;54.40;31.08;;;22.70;45.00;;;;;;5034957;28;20075;-75
2023/01/03 12:45:46;;;;;;;59.88;30.55;;;22.50;46.20;;;;;;5018134;28;20561;-75
2023/01/03 12:52:17;;;;;;;36.95;19.58;;;22.70;46.40;;;;;;5034744;28;20028;-75
2023/01/03 12:59:21;;;;;;;37.47;21.20;;;22.00;47.00;;;;;;5034685;28;20379;-75
2023/01/03 13:02:20;;;;;;;35.17;17.98;;;22.20;46.80;;;;;;5034490;28;20037;-75
2023/01/03 13:05:07;;;;;;;31.02;16.42;;;22.10;46.80;;;;;;5075743;28;20067;-75
2023/01/03 13:07:45;;;;;;;21.27;12.02;;;22.10;46.70;;;;;;5076782;28;20103;-76
2023/01/03 13:10:22;;;;;;;26.85;11.18;;;22.30;46.60;;;;;;5058704;28;20036;-74
2023/01/03 13:16:52;;;;;;;15.45;8.27;;;22.40;46.70;;;;;;5076713;28;20082;-74
2023/01/03 13:19:50;;;;;;;17.88;7.68;;;22.50;45.30;;;;;;5076060;28;20119;-75
2023/01/03 13:26:30;;;;;;;26.70;12.82;;;22.80;44.10;;;;;;5076650;28;20047;-74
2023/01/03 13:29:32;;;;;;;21.52;9.82;;;22.20;46.00;;;;;;5074493;28;20025;-74
2023/01/03 13:36:05;;;;;;;27.95;10.10;;;22.70;45.00;;;;;;5033723;28;20112;-74
2023/01/03 13:39:00;;;;;;;21.08;10.77;;;22.20;45.40;;;;;;5033672;28;20065;-74
2023/01/03 13:41:52;;;;;;;22.08;10.25;;;22.20;45.90;;;;;;5033778;28;20095;-74
2023/01/03 13:44:30;;;;;;;22.20;8.63;;;22.10;46.60;;;;;;5033642;28;20056;-74
2023/01/03 13:51:37;;;;;;;28.20;10.30;;;21.50;47.90;;;;;;5033849;28;20028;-74
2023/01/03 13:54:11;;;;;;;27.95;10.75;;;21.60;46.80;;;;;;5032394;28;20055;-75
2023/01/03 13:56:44;;;;;;;21.55;11.60;;;21.60;47.30;;;;;;5033469;28;20403;-75
2023/01/03 13:59:14;;;;;;;26.73;16.00;;;21.30;48.20;;;;;;5032412;28;20064;-75
2023/01/03 14:05:19;;;;;;;33.20;13.80;;;20.80;48.80;;;;;;5036422;28;20068;-74
2023/01/03 14:08:13;;;;;;;28.83;15.32;;;20.50;49.50;;;;;;5050358;28;20461;-75
2023/01/03 14:11:38;;;;;;;18.60;10.35;;;20.00;51.10;;;;;;5057127;28;20497;-75
2023/01/03 14:14:12;;;;;;;29.00;14.77;;;19.90;51.50;;;;;;5013339;28;20144;-74
2023/01/03 14:20:48;;;;;;;44.45;16.08;;;19.20;53.30;;;;;;5013423;28;20041;-74
2023/01/03 14:24:01;;;;;;;23.63;12.10;;;19.20;53.60;;;;;;5013184;28;20124;-74
2023/01/03 14:30:41;;;;;;;36.75;14.15;;;18.20;56.50;;;;;;5007945;28;20030;-74
2023/01/03 14:33:31;;;;;;;31.77;13.13;;;17.90;57.30;;;;;;4980714;28;20073;-74
2023/01/03 14:40:20;;;;;;;24.45;11.95;;;17.50;59.70;;;;;;4993209;28;20511;-74
2023/01/03 14:42:53;;;;;;;26.40;11.65;;;16.90;61.80;;;;;;4993158;28;20101;-74
2023/01/03 14:45:22;;;;;;;50.35;19.70;;;16.50;63.30;;;;;;4993239;28;20117;-74
2023/01/03 14:47:53;;;;;;;52.08;21.25;;;16.10;66.10;;;;;;5046192;28;20090;-74
2023/01/03 14:50:32;;;;;;;33.55;16.95;;;16.10;68.60;;;;;;5095170;28;20036;-74
2023/01/03 15:04:51;;;;;;;28.95;13.40;;;14.50;90.50;;;;;;5094763;28;20043;-75
2023/01/03 15:08:30;;;;;;;33.53;13.25;;;13.90;94.00;;;;;;5094825;28;20032;-76
2023/01/03 15:14:39;;;;;;;43.70;16.00;;;13.40;97.20;;;;;;5076163;28;20032;-75
2023/01/03 15:17:22;;;;;;;40.80;15.75;;;13.00;99.30;;;;;;5093935;28;20035;-75
2023/01/03 15:21:20;;;;;;;34.15;13.07;;;12.80;99.90;;;;;;5094223;28;20067;-74
2023/01/03 15:24:15;;;;;;;36.92;12.73;;;12.50;99.90;;;;;;5093313;28;20032;-75
2023/01/03 15:31:21;;;;;;;32.58;13.38;;;11.80;99.90;;;;;;5102313;28;20056;-75
2023/01/03 15:34:13;;;;;;;24.13;12.15;;;11.50;99.90;;;;;;5096560;28;20058;-75
2023/01/03 15:36:53;;;;;;;24.00;11.30;;;11.50;99.90;;;;;;5097037;28;20110;-75
2023/01/03 15:39:25;;;;;;;19.08;11.25;;;11.40;99.90;;;;;;5115061;28;20028;-75
2023/01/03 15:48:51;;;;;;;23.05;11.85;;;11.00;99.90;;;;;;5114938;28;20035;-75
2023/01/03 16:03:19;;;;;;;26.85;14.68;;;10.10;99.90;;;;;;5114890;28;20074;-72
2023/01/03 16:06:18;;;;;;;31.75;17.55;;;9.90;99.90;;;;;;5119005;27;20047;-74
2023/01/03 16:13:37;;;;;;;41.05;21.05;;;9.70;99.90;;;;;;5114223;28;20109;-74
2023/01/03 16:16:59;;;;;;;44.28;23.10;;;9.50;99.90;;;;;;5031220;28;20044;-73
2023/01/03 16:20:17;;;;;;;59.78;29.13;;;9.40;99.90;;;;;;5015522;28;20119;-74
2023/01/03 16:22:52;;;;;;;33.60;17.17;;;9.30;99.90;;;;;;5031437;28;20119;-75
2023/01/03 16:25:21;;;;;;;27.17;15.40;;;9.10;99.90;;;;;;5015267;28;20048;-75
2023/01/03 16:27:55;;;;;;;36.22;19.30;;;9.00;99.90;;;;;;5031642;28;20057;-75
2023/01/03 16:30:32;;;;;;;42.45;24.10;;;8.90;99.90;;;;;;5013978;28;20102;-75
2023/01/03 16:33:00;;;;;;;38.83;19.98;;;8.90;99.90;;;;;;5013900;28;20061;-76
2023/01/03 16:35:34;;;;;;;40.53;21.88;;;8.70;99.90;;;;;;5015108;28;20077;-75
2023/01/03 16:42:14;;;;;;;60.10;33.08;;;8.60;99.90;;;;;;5015341;28;20098;-75
2023/01/03 16:44:46;;;;;;;62.85;33.45;;;8.60;99.90;;;;;;5014835;28;20033;-75
2023/01/03 16:47:31;;;;;;;89.97;43.83;;;8.40;99.90;;;;;;5010955;28;20778;-75
2023/01/03 16:50:26;;;;;;;102.95;50.60;;;8.30;99.90;;;;;;5012768;28;20387;-76
2023/01/03 16:56:31;;;;;;;92.63;47.50;;;8.20;99.90;;;;;;5096628;28;20397;-76
2023/01/03 16:59:17;;;;;;;78.70;39.10;;;8.10;99.90;;;;;;5097364;28;20032;-75
2023/01/03 17:01:48;;;;;;;59.38;29.65;;;8.00;99.90;;;;;;5096855;28;20086;-77
2023/01/03 17:04:25;;;;;;;63.50;32.22;;;7.80;99.90;;;;;;5096889;28;20032;-75
2023/01/03 17:06:59;;;;;;;171.55;74.90;;;7.70;99.90;;;;;;5101883;28;20066;-75
2023/01/03 17:09:44;;;;;;;284.67;123.53;;;7.70;99.90;;;;;;5101453;28;20053;-75
2023/01/03 17:16:15;;;;;;;148.10;65.07;;;7.60;99.90;;;;;;5117255;28;20450;-75
2023/01/03 17:23:04;;;;;;;129.00;57.67;;;7.50;99.90;;;;;;5110048;28;20028;-75
2023/01/03 17:25:30;;;;;;;100.68;45.17;;;7.50;99.90;;;;;;5117146;28;20100;-75
2023/01/03 17:28:32;;;;;;;64.85;32.97;;;7.50;99.90;;;;;;5082040;28;20039;-75
2023/01/03 17:31:03;;;;;;;88.85;40.65;;;7.40;99.90;;;;;;5098217;28;20173;-75
2023/01/03 17:33:36;;;;;;;118.80;52.88;;;7.30;99.90;;;;;;5117123;28;20110;-76
2023/01/03 17:43:45;;;;;;;141.93;64.68;;;7.10;99.90;;;;;;5116930;28;20070;-75
2023/01/03 17:50:12;;;;;;;174.35;83.78;;;6.90;99.90;;;;;;5033708;28;20044;-75
2023/01/03 17:52:40;;;;;;;204.80;86.30;;;6.90;99.90;;;;;;5017137;28;20494;-75
2023/01/03 17:55:23;;;;;;;127.00;53.97;;;6.80;99.90;;;;;;5007831;28;20096;-75
2023/01/03 17:57:52;;;;;;;69.90;33.90;;;6.80;99.90;;;;;;5030841;28;20534;-75
2023/01/03 18:00:24;;;;;;;86.53;45.47;;;6.80;99.90;;;;;;5033394;28;20037;-75
2023/01/03 18:03:29;;;;;;;85.55;44.55;;;6.80;99.90;;;;;;5033351;28;20087;-75
2023/01/03 18:09:55;;;;;;;123.40;59.17;;;6.80;99.90;;;;;;5030581;28;20040;-75
2023/01/03 18:12:38;;;;;;;259.33;127.28;;;6.70;99.90;;;;;;5032723;28;20069;-75
2023/01/03 18:15:21;;;;;;;204.13;101.22;;;6.70;99.90;;;;;;5017287;28;20760;-76
2023/01/03 18:18:40;;;;;;;192.10;95.77;;;6.70;99.90;;;;;;4974083;28;20054;-76
2023/01/03 18:21:57;;;;;;;221.23;107.65;;;6.80;99.90;;;;;;4974315;28;20073;-75
2023/01/03 18:24:31;;;;;;;208.80;100.38;;;6.80;99.90;;;;;;4973891;28;20038;-75
2023/01/03 18:27:18;;;;;;;204.80;102.28;;;6.70;99.90;;;;;;5042852;28;20087;-75
2023/01/03 18:29:46;;;;;;;218.75;113.07;;;6.50;99.90;;;;;;5048831;28;20052;-75
2023/01/03 18:32:30;;;;;;;206.93;102.10;;;6.50;99.90;;;;;;5016158;28;20046;-75
2023/01/03 18:34:58;;;;;;;305.20;155.05;;;6.40;99.90;;;;;;5032864;28;20549;-76
2023/01/03 18:41:37;;;;;;;210.50;110.65;;;6.50;99.90;;;;;;5032802;28;20041;-75
2023/01/03 18:44:22;;;;;;;289.63;140.40;;;6.50;99.90;;;;;;5031494;28;20049;-75
2023/01/03 18:46:54;;;;;;;230.85;116.22;;;6.40;99.90;;;;;;5018463;28;20034;-76
2023/01/03 18:49:33;;;;;;;235.13;115.47;;;6.40;99.90;;;;;;5031512;28;20447;-76
2023/01/03 18:52:21;;;;;;;243.27;113.75;;;6.40;99.90;;;;;;5031574;28;20096;-76
2023/01/03 18:58:44;;;;;;;279.67;134.65;;;6.50;99.90;;;;;;5032391;28;20052;-75
2023/01/03 19:01:37;;;;;;;268.15;132.27;;;6.40;99.90;;;;;;5032434;28;20041;-75
2023/01/03 19:04:07;;;;;;;219.68;109.18;;;6.30;99.90;;;;;;5032121;28;20505;-76
2023/01/03 19:06:50;;;;;;;255.73;129.65;;;6.30;99.90;;;;;;5032187;28;20033;-75
2023/01/03 19:13:48;;;;;;;268.92;129.73;;;6.10;99.90;;;;;;5075333;28;20101;-76
2023/01/03 19:28:09;;;;;;;260.35;128.57;;;6.10;99.90;;;;;;5074814;28;20078;-76
2023/01/03 19:31:01;;;;;;;275.55;137.13;;;6.00;99.90;;;;;;5080709;28;20386;-76
2023/01/03 19:33:52;;;;;;;288.88;142.15;;;6.00;99.90;;;;;;5094552;28;20028;-76
2023/01/03 19:36:27;;;;;;;284.52;142.15;;;6.10;99.90;;;;;;5043466;28;20115;-75
2023/01/03 19:43:07;;;;;;;298.23;148.18;;;6.20;99.90;;;;;;5094585;28;20031;-75
2023/01/03 19:45:56;;;;;;;318.25;150.23;;;6.20;99.90;;;;;;5093248;28;20040;-76
2023/01/03 19:52:26;;;;;;;241.35;118.97;;;6.20;99.90;;;;;;5071436;28;20121;-76
2023/01/03 19:55:26;;;;;;;326.73;164.93;;;6.20;99.90;;;;;;5071651;28;20191;-75
2023/01/03 19:58:04;;;;;;;259.77;132.70;;;6.30;99.90;;;;;;5071739;28;20033;-75
2023/01/03 20:00:31;;;;;;;262.00;138.40;;;6.40;99.90;;;;;;5071383;28;20058;-75
2023/01/03 20:03:03;;;;;;;336.88;173.90;;;6.50;99.90;;;;;;5041274;28;20032;-76
2023/01/03 20:09:52;;;;;;;455.13;208.95;;;6.60;99.90;;;;;;5075742;28;20458;-76
2023/01/03 20:12:34;;;;;;;292.30;138.35;;;6.70;99.90;;;;;;5075246;28;20415;-76
2023/01/03 20:15:35;;;;;;;267.85;134.43;;;6.80;99.90;;;;;;5074929;28;20055;-76
2023/01/03 20:21:57;;;;;;;357.75;180.13;;;6.80;99.90;;;;;;5075355;28;20394;-75
2023/01/03 20:24:34;;;;;;;371.58;178.10;;;6.90;99.90;;;;;;5075128;28;20162;-75
2023/01/03 20:27:10;;;;;;;398.30;191.90;;;6.90;99.90;;;;;;5074327;28;20561;-75
2023/01/03 20:29:48;;;;;;;412.48;210.02;;;6.90;99.90;;;;;;5074397;28;20041;-75
2023/01/03 20:32:18;;;;;;;;;;;7.00;99.90;;;;;;5035618;28;20032;-76
2023/01/03 20:39:28;;;;;;;355.17;175.05;;;6.90;99.90;;;;;;5077642;28;20032;-76
2023/01/03 20:41:57;;;;;;;295.73;149.73;;;6.90;99.90;;;;;;5077143;28;20055;-75
2023/01/03 20:44:31;;;;;;;335.80;167.85;;;6.90;99.90;;;;;;5076118;28;20100;-75
2023/01/03 20:50:56;;;;;;;319.52;161.48;;;7.10;99.90;;;;;;5015053;28;20403;-75
2023/01/03 20:53:38;;;;;;;321.55;161.98;;;7.20;99.90;;;;;;5015026;28;20038;-75
2023/01/03 20:56:33;;;;;;;395.35;198.70;;;7.20;99.90;;;;;;5014771;28;20126;-75
2023/01/03 20:59:23;;;;;;;419.00;217.27;;;7.20;99.90;;;;;;5014944;28;20124;-75
2023/01/03 21:05:47;;;;;;;423.38;217.93;;;7.20;99.90;;;;;;5014980;28;20552;-76
2023/01/03 21:15:24;;;;;;;539.25;273.85;;;7.40;99.90;;;;;;5013772;28;19993;-75
2023/01/03 21:18:12;;;;;;;539.25;283.65;;;7.40;99.90;;;;;;5014434;28;20042;-75
2023/01/03 21:21:16;;;;;;;549.45;284.83;;;7.50;99.90;;;;;;5014435;28;20033;-76
2023/01/03 21:24:24;;;;;;;533.70;275.95;;;7.40;99.90;;;;;;4990562;28;20124;-75
2023/01/03 21:27:26;;;;;;;547.58;288.17;;;7.50;99.90;;;;;;5014352;28;20097;-76
2023/01/03 21:29:59;;;;;;;529.22;278.60;;;7.50;99.90;;;;;;5015576;28;20400;-76
2023/01/03 21:32:54;;;;;;;525.40;272.08;;;7.40;99.90;;;;;;5053996;28;20033;-74